Latest Weather Observations for Coondewanna

IDW60801

Issued at 11:02 pm WST Saturday 4 July 2015 (issued every 30 minutes, with the page automatically refreshed every 10 minutes)

About weather observations | Map of weather stations | Latest weather observations for WA | Other Formats
Station Details ID: 505051 Name: COONDEWANNA Lat: -22.96 Lon: 118.81 Height: 697.63 m
Data from the previous 72 hours. | See also: Recent months for locations in Western Australia
Date/Time
WST
Temp
°C
App
Temp
°C
Dew
Point
Rel
Hum
%
Delta-T
°C
Wind Press
QNH
hPa
Press
MSL
hPa
Rain
since 9 am
mm
Dir
 
Spd
km/h
Gust
km/h
Spd
kts
Gust
kts
04/11:00pm 6.7 5.1 2.2 73 1.9 CALM 0 0 0 0 1022.5 1021.1 0.0
04/10:30pm 7.4 5.8 2.5 71 2.1 CALM 0 0 0 0 1022.6 1021.2 0.0
04/10:00pm 8.1 6.6 2.8 69 2.3 CALM 0 0 0 0 1022.7 1021.3 0.0
04/09:30pm 8.6 7.0 2.4 65 2.7 CALM 0 0 0 0 1022.7 1021.3 0.0
04/09:00pm 9.3 7.7 2.2 61 3.1 CALM 0 0 0 0 1022.5 1021.1 0.0
04/08:30pm 10.1 8.5 2.7 60 3.3 CALM 0 0 0 0 1022.5 1021.1 0.0
04/08:00pm 10.7 8.6 2.0 55 3.8 E 2 7 1 4 1022.3 1020.9 0.0
04/07:30pm 13.4 9.6 1.7 45 5.3 E 11 13 6 7 1022.1 1020.7 0.0
04/07:00pm 14.5 10.6 1.4 41 5.9 E 11 13 6 7 1021.9 1020.5 0.0
04/06:30pm 16.1 12.6 1.4 37 6.7 ESE 9 11 5 6 1021.7 1020.3 0.0
04/06:00pm 18.4 14.4 0.5 30 8.2 ESE 11 15 6 8 1021.5 1020.0 0.0
04/05:30pm 19.9 15.9 0.4 27 9.0 ESE 11 13 6 7 1021.3 1019.8 0.0
04/05:18pm 21.0 16.5 -0.3 24 9.8 ESE 13 17 7 9 1021.3 1019.8 0.0
04/05:00pm 21.7 16.7 -0.9 22 10.3 ESE 15 19 8 10 1021.1 1019.7 0.0
04/04:30pm 22.5 17.5 -0.9 21 10.8 ESE 15 20 8 11 1021.1 1019.7 0.0
04/04:00pm 22.8 17.4 -1.3 20 11.0 ESE 17 22 9 12 1021.1 1019.7 0.0
04/03:30pm 23.1 17.3 -1.8 19 11.3 SE 19 30 10 16 1021.3 1019.8 0.0
04/03:00pm 23.0 17.5 -1.8 19 11.2 ESE 17 28 9 15 1021.3 1019.8 0.0
04/02:30pm 22.4 16.4 -3.1 18 11.2 SE 19 28 10 15 1021.3 1019.8 0.0
04/02:00pm 23.0 16.6 -1.8 19 11.2 ESE 22 32 12 17 1021.6 1020.1 0.0
04/01:30pm 22.8 16.4 -2.0 19 11.2 ESE 22 32 12 17 1021.8 1020.4 0.0
04/01:00pm 22.7 17.0 -0.7 21 10.8 ESE 19 30 10 16 1021.9 1020.5 0.0
04/12:30pm 22.5 16.7 -0.3 22 10.6 E 20 30 11 16 1022.3 1020.9 0.0
04/12:00pm 22.2 16.3 -0.5 22 10.5 ESE 20 32 11 17 1022.6 1021.2 0.0
04/11:30am 21.5 15.0 0.1 24 10.0 E 24 33 13 18 1023.2 1021.8 0.0
04/11:00am 21.3 16.2 0.5 25 9.7 E 17 26 9 14 1023.5 1022.1 0.0
04/10:30am 20.5 15.3 -0.2 25 9.5 E 17 22 9 12 1023.8 1022.4 0.0
04/10:07am 18.8 16.5 3.0 35 7.6 SW 4 7 2 4 1024.1 1022.8 0.0
04/10:00am 18.0 15.8 3.5 38 7.0 SW 4 7 2 4 1024.1 1022.8 0.0
04/09:52am 17.5 14.7 3.4 39 6.8 WSW 7 11 4 6 1024.2 1022.9 0.0
04/09:30am 15.4 13.2 5.3 51 5.0 E 6 7 3 4 1024.2 1022.9 0.0
04/09:13am 13.7 11.4 4.8 55 4.3 E 6 7 3 4 1024.4 1023.0 0.0
04/09:00am 12.4 11.1 4.1 57 3.9 CALM 0 0 0 0 1024.2 1022.9 0.0
04/08:48am 11.2 10.0 4.4 63 3.2 CALM 0 0 0 0 1024.1 1022.8 0.0
04/08:30am 9.7 8.3 3.7 66 2.7 CALM 0 0 0 0 1023.9 1022.5 0.0
04/08:00am 7.1 5.6 2.8 74 1.9 CALM 0 0 0 0 1023.8 1022.4 0.0
04/07:30am 4.3 2.6 1.7 83 1.1 CALM 0 0 0 0 1023.6 1022.2 0.0
04/07:00am 2.7 0.9 0.9 88 0.7 CALM 0 0 0 0 1023.3 1021.9 0.0
04/06:30am 2.7 0.9 1.1 89 0.6 CALM 0 0 0 0 1023.1 1021.7 0.0
04/06:00am 3.2 1.4 1.4 88 0.7 CALM 0 0 0 0 1022.9 1021.5 0.0
04/05:30am 3.4 1.6 1.4 87 0.8 CALM 0 0 0 0 1022.6 1021.2 0.0
04/05:00am 3.6 1.9 2.0 89 0.7 CALM 0 0 0 0 1022.5 1021.1 0.0
04/04:30am 3.8 2.1 1.8 87 0.8 CALM 0 0 0 0 1022.5 1021.1 0.0
04/04:00am 4.1 2.4 2.0 86 0.9 CALM 0 0 0 0 1022.4 1021.0 0.0
04/03:30am 4.5 2.9 2.2 85 1.0 CALM 0 0 0 0 1022.5 1021.1 0.0
04/03:00am 4.7 3.1 2.2 84 1.0 CALM 0 0 0 0 1022.7 1021.3 0.0
04/02:30am 4.9 3.3 2.6 85 1.0 CALM 0 0 0 0 1022.9 1021.5 0.0
04/02:00am 5.2 3.6 2.7 84 1.1 CALM 0 0 0 0 1023.1 1021.7 0.0
04/01:30am 5.7 4.2 2.9 82 1.2 CALM 0 0 0 0 1023.2 1021.8 0.0
04/01:00am 5.8 4.3 3.0 82 1.2 CALM 0 0 0 0 1023.3 1021.9 0.0
04/12:30am 6.8 5.3 3.1 77 1.6 CALM 0 0 0 0 1023.3 1021.9 0.0
04/12:00am 7.8 5.6 3.3 73 2.0 E 4 6 2 3 1023.4 1022.0 0.0
 
Date/Time
WST
Temp
°C
App
Temp
°C
Dew
Point
Rel
Hum
%
Delta-T
°C
Wind Press
QNH
hPa
Press
MSL
hPa
Rain
since 9 am
mm
Dir
 
Spd
km/h
Gust
km/h
Spd
kts
Gust
kts
03/11:30pm 8.1 5.4 3.6 73 2.0 E 7 7 4 4 1023.5 1022.1 0.0
03/11:00pm 7.7 6.3 3.7 76 1.8 CALM 0 0 0 0 1023.6 1022.2 0.0
03/10:30pm 8.2 6.9 3.9 74 1.9 CALM 0 0 0 0 1023.7 1022.3 0.0
03/10:00pm 9.2 7.9 4.2 71 2.3 CALM 0 0 0 0 1023.7 1022.3 0.0
03/09:30pm 9.4 8.1 4.0 69 2.5 CALM 0 0 0 0 1023.6 1022.2 0.0
03/09:00pm 10.8 8.4 4.3 64 3.0 E 6 7 3 4 1023.6 1022.2 0.0
03/08:30pm 11.2 9.9 4.0 61 3.3 CALM 0 0 0 0 1023.7 1022.3 0.0
03/08:00pm 11.7 10.0 4.0 59 3.6 E 2 6 1 3 1023.5 1022.1 0.0
03/07:30pm 12.9 11.2 4.1 55 4.2 E 2 7 1 4 1023.3 1021.9 0.0
03/07:00pm 14.8 11.4 3.9 48 5.2 E 11 11 6 6 1023.2 1021.8 0.0
03/06:30pm 16.4 13.7 3.8 43 6.1 ESE 7 11 4 6 1022.7 1021.3 0.0
03/06:00pm 18.0 14.4 3.1 37 7.1 ESE 11 13 6 7 1022.4 1021.0 0.0
03/05:30pm 19.8 16.1 2.2 31 8.4 SE 11 13 6 7 1022.0 1020.6 0.0
03/05:00pm 21.6 18.3 2.3 28 9.3 SE 9 13 5 7 1022.0 1020.6 0.0
03/04:30pm 22.0 18.2 1.6 26 9.8 SSE 11 19 6 10 1021.9 1020.5 0.0
03/04:00pm 22.1 17.8 1.2 25 9.9 SSE 13 24 7 13 1021.8 1020.4 0.0
03/03:30pm 22.1 17.5 1.7 26 9.8 ESE 15 24 8 13 1021.7 1020.3 0.0
03/03:00pm 22.7 18.6 2.2 26 10.0 SSE 13 20 7 11 1021.8 1020.4 0.0
03/02:30pm 22.3 17.4 1.9 26 9.9 S 17 20 9 11 1021.8 1020.4 0.0
03/02:00pm 22.2 17.3 2.3 27 9.7 ESE 17 26 9 14 1021.9 1020.5 0.0
03/01:30pm 22.3 17.8 2.4 27 9.7 ESE 15 26 8 14 1022.2 1020.8 0.0
03/01:00pm 21.8 16.5 2.0 27 9.5 ESE 19 30 10 16 1022.4 1021.0 0.0
03/12:30pm 21.5 18.2 2.7 29 9.2 S 9 17 5 9 1022.9 1021.5 0.0
03/12:00pm 20.9 16.8 2.2 29 9.0 SE 13 20 7 11 1023.5 1022.1 0.0
03/11:30am 21.3 17.0 3.0 30 9.0 SE 15 26 8 14 1024.1 1022.8 0.0
03/11:00am 21.0 16.6 2.8 30 8.8 ENE 15 24 8 13 1024.6 1023.2 0.0
03/10:30am 20.3 14.6 2.6 31 8.6 E 22 28 12 15 1024.9 1023.5 0.0
03/10:00am 19.8 17.1 3.5 34 8.0 E 7 20 4 11 1025.1 1023.7 0.0
03/09:30am 15.8 14.8 5.7 51 5.0 CALM 0 0 0 0 1025.2 1023.8 0.0
03/09:00am 12.9 11.7 4.8 58 3.9 CALM 0 6 0 3 1025.4 1024.1 0.0
03/08:30am 10.3 9.0 4.2 66 2.8 CALM 0 0 0 0 1025.3 1023.9 0.0
03/08:00am 7.1 5.7 3.3 77 1.7 CALM 0 4 0 2 1025.1 1023.7 0.0
03/07:30am 5.7 4.1 2.7 81 1.3 CALM 0 0 0 0 1024.7 1023.3 0.0
03/07:00am 3.8 2.2 2.2 89 0.7 CALM 0 0 0 0 1024.4 1023.0 0.0
03/06:30am 3.5 1.8 1.9 89 0.7 CALM 0 0 0 0 1024.1 1022.8 0.0
03/06:00am 3.5 1.8 2.0 90 0.6 CALM 0 0 0 0 1023.8 1022.4 0.0
03/05:30am 4.2 2.6 2.4 88 0.8 CALM 0 0 0 0 1023.7 1022.3 0.0
03/05:00am 5.0 3.1 3.0 87 0.9 ENE 2 7 1 4 1023.6 1022.2 0.0
03/04:30am 4.5 2.9 2.5 87 0.8 CALM 0 0 0 0 1023.5 1022.1 0.0
03/04:00am 4.6 3.0 2.6 87 0.8 CALM 0 0 0 0 1023.4 1022.0 0.0
03/03:30am 4.8 2.9 3.0 88 0.8 E 2 7 1 4 1023.5 1022.1 0.0
03/03:00am 5.3 3.8 3.2 86 0.9 CALM 0 0 0 0 1023.6 1022.2 0.0
03/02:30am 5.6 4.2 3.4 86 1.0 CALM 0 0 0 0 1023.7 1022.3 0.0
03/02:00am 5.6 4.2 3.3 85 1.0 CALM 0 0 0 0 1024.0 1022.6 0.0
03/01:30am 6.2 4.8 3.4 82 1.2 CALM 0 0 0 0 1024.1 1022.8 0.0
03/01:00am 6.5 4.8 3.8 83 1.2 E 2 7 1 4 1024.4 1023.0 0.0
03/12:30am 6.7 5.3 3.7 81 1.3 CALM 0 0 0 0 1024.6 1023.2 0.0
03/12:00am 7.7 6.0 4.1 78 1.6 E 2 6 1 3 1024.7 1023.3 0.0
 
Date/Time
WST
Temp
°C
App
Temp
°C
Dew
Point
Rel
Hum
%
Delta-T
°C
Wind Press
QNH
hPa
Press
MSL
hPa
Rain
since 9 am
mm
Dir
 
Spd
km/h
Gust
km/h
Spd
kts
Gust
kts
02/11:30pm 7.6 6.3 4.2 79 1.5 CALM 0 0 0 0 1024.7 1023.3 0.0
02/11:00pm 8.2 7.0 4.4 77 1.7 CALM 0 0 0 0 1024.9 1023.5 0.0
02/10:30pm 8.5 7.3 4.5 76 1.8 CALM 0 0 0 0 1024.9 1023.5 0.0
02/10:00pm 9.6 8.4 4.8 72 2.2 CALM 0 0 0 0 1025.0 1023.6 0.0
02/09:30pm 10.1 9.0 4.9 70 2.4 CALM 0 0 0 0 1025.1 1023.7 0.0
02/09:00pm 10.6 9.5 4.9 68 2.7 CALM 0 0 0 0 1024.9 1023.5 0.0
02/08:30pm 11.5 10.4 4.9 64 3.1 CALM 0 0 0 0 1024.9 1023.5 0.0
02/08:00pm 12.5 11.3 4.7 59 3.7 CALM 0 0 0 0 1024.8 1023.4 0.0
02/07:30pm 14.7 11.8 4.7 51 4.8 E 9 13 5 7 1024.5 1023.1 0.0
02/07:00pm 15.3 12.4 4.7 49 5.1 NE 9 11 5 6 1024.1 1022.8 0.0
02/06:30pm 16.1 13.7 4.2 45 5.8 NE 6 9 3 5 1023.8 1022.4 0.0
02/06:00pm 17.5 15.1 4.5 42 6.4 NE 6 7 3 4 1023.6 1022.2 0.0
02/05:30pm 20.0 16.8 3.3 33 8.2 NE 9 11 5 6 1023.4 1022.0 0.0
02/05:00pm 21.7 18.9 1.9 27 9.5 E 6 9 3 5 1023.1 1021.7 0.0
02/04:30pm 22.0 18.7 2.2 27 9.6 ESE 9 17 5 9 1023.1 1021.7 0.0
02/04:00pm 22.3 19.4 1.3 25 10.0 WNW 6 11 3 6 1023.0 1021.6 0.0
02/03:30pm 22.9 19.6 2.4 26 10.1 NE 9 17 5 9 1022.9 1021.5 0.0
02/03:00pm 22.6 19.2 2.1 26 10.0 S 9 17 5 9 1022.9 1021.5 0.0
02/02:30pm 23.4 20.6 2.3 25 10.4 WSW 6 13 3 7 1023.1 1021.7 0.0
02/02:00pm 22.4 17.5 2.0 26 9.9 E 17 26 9 14 1023.4 1022.0 0.0
02/01:30pm 22.7 18.2 2.2 26 10.0 NNE 15 28 8 15 1023.6 1022.2 0.0
02/01:00pm 22.3 18.1 1.9 26 9.8 NNE 13 20 7 11 1024.0 1022.6 0.0
02/12:30pm 22.3 17.5 2.4 27 9.7 ESE 17 24 9 13 1024.5 1023.1 0.0
02/12:00pm 22.1 16.6 1.7 26 9.8 ENE 20 32 11 17 1025.1 1023.7 0.0
02/11:30am 21.8 16.6 2.5 28 9.4 E 19 24 10 13 1025.9 1024.5 0.0
02/11:00am 21.5 16.0 1.7 27 9.5 NE 20 30 11 16 1026.1 1024.7 0.0
02/10:30am 20.8 15.5 3.1 31 8.7 ENE 20 32 11 17 1026.3 1024.9 0.0
02/10:00am 19.9 14.8 3.2 33 8.1 ENE 19 28 10 15 1026.4 1025.0 0.0
02/09:30am 15.4 13.9 5.0 50 5.1 ENE 2 7 1 4 1026.6 1025.2 0.0
02/09:00am 12.3 10.1 5.2 62 3.4 ENE 6 7 3 4 1026.5 1025.1 0.0
02/08:30am 9.9 8.2 3.9 66 2.8 ENE 2 7 1 4 1026.4 1025.0 0.0
02/08:00am 7.6 6.2 3.3 74 1.9 CALM 0 0 0 0 1026.2 1024.8 0.0
02/07:30am 4.9 2.9 2.4 84 1.1 E 2 7 1 4 1025.9 1024.5 0.0
02/07:00am 3.4 0.9 1.8 89 0.7 E 4 6 2 3 1025.5 1024.2 0.0
02/06:30am 2.8 0.6 1.3 90 0.6 E 2 7 1 4 1025.4 1024.1 0.0
02/06:00am 3.4 1.7 1.8 89 0.7 CALM 0 0 0 0 1025.2 1023.8 0.0
02/05:30am 3.3 1.6 1.7 89 0.7 CALM 0 0 0 0 1025.1 1023.7 0.0
02/05:00am 3.6 1.9 1.8 88 0.7 CALM 0 0 0 0 1024.9 1023.5 0.0
02/04:30am 4.3 2.7 2.3 87 0.8 CALM 0 0 0 0 1024.8 1023.4 0.0
02/04:00am 4.2 2.6 2.2 87 0.8 CALM 0 0 0 0 1024.7 1023.3 0.0
02/03:30am 4.4 2.7 2.1 85 1.0 CALM 0 0 0 0 1024.7 1023.3 0.0
02/03:00am 4.6 3.0 2.6 87 0.8 CALM 0 0 0 0 1024.7 1023.3 0.0
02/02:30am 5.0 3.4 2.7 85 1.0 CALM 0 6 0 3 1024.8 1023.4 0.0
02/02:00am 5.0 3.1 2.7 85 1.0 E 2 9 1 5 1025.0 1023.6 0.0
02/01:30am 5.2 3.3 2.7 84 1.1 E 2 7 1 4 1025.2 1023.8 0.0
02/01:00am 6.1 3.8 2.9 80 1.4 E 4 7 2 4 1025.3 1023.9 0.0
02/12:30am 6.3 4.8 2.9 79 1.5 CALM 0 0 0 0 1025.5 1024.2 0.0
02/12:00am 7.0 5.6 3.3 77 1.6 CALM 0 0 0 0 1025.4 1024.1 0.0
 
Date/Time
WST
Temp
°C
App
Temp
°C
Dew
Point
Rel
Hum
%
Delta-T
°C
Wind Press
QNH
hPa
Press
MSL
hPa
Rain
since 9 am
mm
Dir
 
Spd
km/h
Gust
km/h
Spd
kts
Gust
kts
01/11:30pm 7.0 4.8 3.3 77 1.6 E 4 7 2 4 1025.5 1024.2 0.0

Other Formats:

Comma delimited format used in spreadsheet applications
http://www.bom.gov.au/fwo/IDW60801/IDW60801.99312.axf

JavaScript Object Notation format (JSON) in row-major order
http://www.bom.gov.au/fwo/IDW60801/IDW60801.99312.json